sensor_id;sensor_type;location;lat;lon;timestamp;P1;durP1;ratioP1;P2;durP2;ratioP2
6852;SDS011;3465;42.144;24.722;2022-07-23T00:01:20;13.02;;;5.90;;
6852;SDS011;3465;42.144;24.722;2022-07-23T00:03:46;16.35;;;6.45;;
6852;SDS011;3465;42.144;24.722;2022-07-23T00:06:11;17.90;;;6.50;;
6852;SDS011;3465;42.144;24.722;2022-07-23T00:08:40;13.70;;;5.97;;
6852;SDS011;3465;42.144;24.722;2022-07-23T00:11:05;10.75;;;5.57;;
6852;SDS011;3465;42.144;24.722;2022-07-23T00:13:31;17.23;;;6.13;;
6852;SDS011;3465;42.144;24.722;2022-07-23T00:15:56;14.90;;;5.90;;
6852;SDS011;3465;42.144;24.722;2022-07-23T00:18:22;12.07;;;5.90;;
6852;SDS011;3465;42.144;24.722;2022-07-23T00:20:47;11.98;;;6.13;;
6852;SDS011;3465;42.144;24.722;2022-07-23T00:23:13;14.18;;;5.75;;
6852;SDS011;3465;42.144;24.722;2022-07-23T00:25:38;13.20;;;6.80;;
6852;SDS011;3465;42.144;24.722;2022-07-23T00:28:04;14.82;;;7.22;;
6852;SDS011;3465;42.144;24.722;2022-07-23T00:30:30;21.42;;;7.55;;
6852;SDS011;3465;42.144;24.722;2022-07-23T00:32:57;12.50;;;7.90;;
6852;SDS011;3465;42.144;24.722;2022-07-23T00:35:29;15.82;;;7.60;;
6852;SDS011;3465;42.144;24.722;2022-07-23T00:37:57;13.90;;;8.00;;
6852;SDS011;3465;42.144;24.722;2022-07-23T00:40:24;20.58;;;9.52;;
6852;SDS011;3465;42.144;24.722;2022-07-23T00:42:50;20.33;;;9.48;;
6852;SDS011;3465;42.144;24.722;2022-07-23T00:45:16;13.23;;;7.40;;
6852;SDS011;3465;42.144;24.722;2022-07-23T00:47:42;13.43;;;7.68;;
6852;SDS011;3465;42.144;24.722;2022-07-23T00:50:08;12.25;;;8.00;;
6852;SDS011;3465;42.144;24.722;2022-07-23T00:52:35;13.02;;;7.13;;
6852;SDS011;3465;42.144;24.722;2022-07-23T00:55:02;15.60;;;7.25;;
6852;SDS011;3465;42.144;24.722;2022-07-23T00:57:28;13.05;;;6.10;;
6852;SDS011;3465;42.144;24.722;2022-07-23T00:59:54;10.30;;;5.65;;
6852;SDS011;3465;42.144;24.722;2022-07-23T01:02:20;13.50;;;5.97;;
6852;SDS011;3465;42.144;24.722;2022-07-23T01:04:45;13.65;;;6.40;;
6852;SDS011;3465;42.144;24.722;2022-07-23T01:07:11;9.80;;;5.88;;
6852;SDS011;3465;42.144;24.722;2022-07-23T01:09:36;10.43;;;6.18;;
6852;SDS011;3465;42.144;24.722;2022-07-23T01:12:03;11.73;;;5.95;;
6852;SDS011;3465;42.144;24.722;2022-07-23T01:14:28;11.50;;;5.80;;
6852;SDS011;3465;42.144;24.722;2022-07-23T01:16:54;16.33;;;5.97;;
6852;SDS011;3465;42.144;24.722;2022-07-23T01:19:19;10.32;;;5.95;;
6852;SDS011;3465;42.144;24.722;2022-07-23T01:21:49;13.35;;;6.28;;
6852;SDS011;3465;42.144;24.722;2022-07-23T01:24:17;14.25;;;6.85;;
6852;SDS011;3465;42.144;24.722;2022-07-23T01:26:46;11.40;;;6.40;;
6852;SDS011;3465;42.144;24.722;2022-07-23T01:29:12;12.13;;;6.38;;
6852;SDS011;3465;42.144;24.722;2022-07-23T01:31:39;13.23;;;7.55;;
6852;SDS011;3465;42.144;24.722;2022-07-23T01:34:04;17.17;;;8.57;;
6852;SDS011;3465;42.144;24.722;2022-07-23T01:36:32;18.10;;;9.60;;
6852;SDS011;3465;42.144;24.722;2022-07-23T01:38:58;17.77;;;10.15;;
6852;SDS011;3465;42.144;24.722;2022-07-23T01:41:23;17.45;;;10.02;;
6852;SDS011;3465;42.144;24.722;2022-07-23T01:43:49;18.50;;;9.93;;
6852;SDS011;3465;42.144;24.722;2022-07-23T01:46:14;17.13;;;9.65;;
6852;SDS011;3465;42.144;24.722;2022-07-23T01:48:40;23.30;;;10.43;;
6852;SDS011;3465;42.144;24.722;2022-07-23T01:51:05;21.42;;;10.48;;
6852;SDS011;3465;42.144;24.722;2022-07-23T01:53:31;21.63;;;10.35;;
6852;SDS011;3465;42.144;24.722;2022-07-23T01:55:57;18.10;;;9.43;;
6852;SDS011;3465;42.144;24.722;2022-07-23T01:58:23;18.70;;;10.23;;
6852;SDS011;3465;42.144;24.722;2022-07-23T02:00:49;20.30;;;10.35;;
6852;SDS011;3465;42.144;24.722;2022-07-23T02:03:15;21.63;;;10.27;;
6852;SDS011;3465;42.144;24.722;2022-07-23T02:05:40;19.10;;;10.07;;
6852;SDS011;3465;42.144;24.722;2022-07-23T02:08:06;18.50;;;11.68;;
6852;SDS011;3465;42.144;24.722;2022-07-23T02:10:31;18.58;;;11.10;;
6852;SDS011;3465;42.144;24.722;2022-07-23T02:12:56;20.17;;;10.93;;
6852;SDS011;3465;42.144;24.722;2022-07-23T02:15:22;19.30;;;10.07;;
6852;SDS011;3465;42.144;24.722;2022-07-23T02:17:48;25.05;;;10.98;;
6852;SDS011;3465;42.144;24.722;2022-07-23T02:20:13;22.60;;;10.88;;
6852;SDS011;3465;42.144;24.722;2022-07-23T02:22:39;20.95;;;12.02;;
6852;SDS011;3465;42.144;24.722;2022-07-23T02:25:05;25.80;;;12.38;;
6852;SDS011;3465;42.144;24.722;2022-07-23T02:27:32;19.92;;;11.30;;
6852;SDS011;3465;42.144;24.722;2022-07-23T02:29:58;20.10;;;10.60;;
6852;SDS011;3465;42.144;24.722;2022-07-23T02:32:23;22.55;;;11.73;;
6852;SDS011;3465;42.144;24.722;2022-07-23T02:34:49;17.95;;;10.93;;
6852;SDS011;3465;42.144;24.722;2022-07-23T02:37:15;17.42;;;10.13;;
6852;SDS011;3465;42.144;24.722;2022-07-23T02:39:41;21.98;;;9.88;;
6852;SDS011;3465;42.144;24.722;2022-07-23T02:42:06;18.30;;;9.88;;
6852;SDS011;3465;42.144;24.722;2022-07-23T02:44:35;17.40;;;9.80;;
6852;SDS011;3465;42.144;24.722;2022-07-23T02:47:01;17.00;;;9.70;;
6852;SDS011;3465;42.144;24.722;2022-07-23T02:49:26;19.83;;;10.10;;
6852;SDS011;3465;42.144;24.722;2022-07-23T02:51:52;19.58;;;10.00;;
6852;SDS011;3465;42.144;24.722;2022-07-23T02:54:17;17.92;;;9.27;;
6852;SDS011;3465;42.144;24.722;2022-07-23T02:56:42;15.80;;;9.52;;
6852;SDS011;3465;42.144;24.722;2022-07-23T02:59:08;18.13;;;8.70;;
6852;SDS011;3465;42.144;24.722;2022-07-23T03:01:34;16.42;;;9.38;;
6852;SDS011;3465;42.144;24.722;2022-07-23T03:03:59;14.63;;;8.68;;
6852;SDS011;3465;42.144;24.722;2022-07-23T03:06:25;19.25;;;8.93;;
6852;SDS011;3465;42.144;24.722;2022-07-23T03:08:50;14.85;;;8.52;;
6852;SDS011;3465;42.144;24.722;2022-07-23T03:11:16;16.00;;;8.70;;
6852;SDS011;3465;42.144;24.722;2022-07-23T03:13:41;25.98;;;8.65;;
6852;SDS011;3465;42.144;24.722;2022-07-23T03:16:07;19.42;;;8.65;;
6852;SDS011;3465;42.144;24.722;2022-07-23T03:18:33;12.82;;;8.23;;
6852;SDS011;3465;42.144;24.722;2022-07-23T03:20:59;20.58;;;8.43;;
6852;SDS011;3465;42.144;24.722;2022-07-23T03:23:25;14.10;;;8.05;;
6852;SDS011;3465;42.144;24.722;2022-07-23T03:25:51;14.57;;;8.18;;
6852;SDS011;3465;42.144;24.722;2022-07-23T03:28:16;16.88;;;8.70;;
6852;SDS011;3465;42.144;24.722;2022-07-23T03:30:43;14.43;;;8.07;;
6852;SDS011;3465;42.144;24.722;2022-07-23T03:33:11;16.77;;;8.50;;
6852;SDS011;3465;42.144;24.722;2022-07-23T03:35:41;18.90;;;8.25;;
6852;SDS011;3465;42.144;24.722;2022-07-23T03:38:08;17.27;;;8.68;;
6852;SDS011;3465;42.144;24.722;2022-07-23T03:40:33;15.63;;;8.43;;
6852;SDS011;3465;42.144;24.722;2022-07-23T03:42:59;20.02;;;8.48;;
6852;SDS011;3465;42.144;24.722;2022-07-23T03:45:24;13.77;;;8.13;;
6852;SDS011;3465;42.144;24.722;2022-07-23T03:47:50;18.75;;;8.88;;
6852;SDS011;3465;42.144;24.722;2022-07-23T03:50:15;24.05;;;8.50;;
6852;SDS011;3465;42.144;24.722;2022-07-23T03:52:40;14.50;;;8.25;;
6852;SDS011;3465;42.144;24.722;2022-07-23T03:55:06;10.63;;;7.05;;
6852;SDS011;3465;42.144;24.722;2022-07-23T03:57:32;14.65;;;7.35;;
6852;SDS011;3465;42.144;24.722;2022-07-23T03:59:58;13.85;;;7.13;;
6852;SDS011;3465;42.144;24.722;2022-07-23T04:02:23;13.63;;;8.00;;
6852;SDS011;3465;42.144;24.722;2022-07-23T04:04:49;12.25;;;7.55;;
6852;SDS011;3465;42.144;24.722;2022-07-23T04:07:15;13.52;;;7.50;;
6852;SDS011;3465;42.144;24.722;2022-07-23T04:09:42;17.67;;;7.85;;
6852;SDS011;3465;42.144;24.722;2022-07-23T04:12:08;14.35;;;7.60;;
6852;SDS011;3465;42.144;24.722;2022-07-23T04:14:34;13.45;;;7.63;;
6852;SDS011;3465;42.144;24.722;2022-07-23T04:17:00;12.93;;;8.27;;
6852;SDS011;3465;42.144;24.722;2022-07-23T04:19:25;18.80;;;8.90;;
6852;SDS011;3465;42.144;24.722;2022-07-23T04:21:51;15.65;;;7.57;;
6852;SDS011;3465;42.144;24.722;2022-07-23T04:24:17;15.13;;;7.88;;
6852;SDS011;3465;42.144;24.722;2022-07-23T04:26:43;23.00;;;8.65;;
6852;SDS011;3465;42.144;24.722;2022-07-23T04:29:08;14.18;;;8.07;;
6852;SDS011;3465;42.144;24.722;2022-07-23T04:31:37;19.00;;;8.25;;
6852;SDS011;3465;42.144;24.722;2022-07-23T04:34:02;19.25;;;8.80;;
6852;SDS011;3465;42.144;24.722;2022-07-23T04:36:28;13.73;;;7.90;;
6852;SDS011;3465;42.144;24.722;2022-07-23T04:38:53;19.50;;;9.32;;
6852;SDS011;3465;42.144;24.722;2022-07-23T04:41:19;16.27;;;9.57;;
6852;SDS011;3465;42.144;24.722;2022-07-23T04:43:45;25.60;;;9.13;;
6852;SDS011;3465;42.144;24.722;2022-07-23T04:46:11;17.20;;;8.70;;
6852;SDS011;3465;42.144;24.722;2022-07-23T04:48:36;22.90;;;9.05;;
6852;SDS011;3465;42.144;24.722;2022-07-23T04:51:02;16.92;;;9.32;;
6852;SDS011;3465;42.144;24.722;2022-07-23T04:53:28;18.83;;;9.57;;
6852;SDS011;3465;42.144;24.722;2022-07-23T04:55:54;22.40;;;9.52;;
6852;SDS011;3465;42.144;24.722;2022-07-23T04:58:19;18.73;;;8.45;;
6852;SDS011;3465;42.144;24.722;2022-07-23T05:00:45;19.08;;;9.25;;
6852;SDS011;3465;42.144;24.722;2022-07-23T05:03:11;20.60;;;9.55;;
6852;SDS011;3465;42.144;24.722;2022-07-23T05:05:36;22.88;;;9.65;;
6852;SDS011;3465;42.144;24.722;2022-07-23T05:08:02;22.45;;;9.68;;
6852;SDS011;3465;42.144;24.722;2022-07-23T05:10:27;18.63;;;10.02;;
6852;SDS011;3465;42.144;24.722;2022-07-23T05:12:53;17.02;;;9.48;;
6852;SDS011;3465;42.144;24.722;2022-07-23T05:15:18;20.33;;;10.05;;
6852;SDS011;3465;42.144;24.722;2022-07-23T05:17:44;15.40;;;9.13;;
6852;SDS011;3465;42.144;24.722;2022-07-23T05:20:09;20.63;;;8.98;;
6852;SDS011;3465;42.144;24.722;2022-07-23T05:22:35;16.42;;;9.77;;
6852;SDS011;3465;42.144;24.722;2022-07-23T05:25:03;18.83;;;9.52;;
6852;SDS011;3465;42.144;24.722;2022-07-23T05:27:29;22.58;;;10.40;;
6852;SDS011;3465;42.144;24.722;2022-07-23T05:29:55;21.67;;;9.82;;
6852;SDS011;3465;42.144;24.722;2022-07-23T05:32:20;26.77;;;9.43;;
6852;SDS011;3465;42.144;24.722;2022-07-23T05:34:46;14.98;;;9.18;;
6852;SDS011;3465;42.144;24.722;2022-07-23T05:37:11;19.33;;;9.27;;
6852;SDS011;3465;42.144;24.722;2022-07-23T05:39:36;17.67;;;9.43;;
6852;SDS011;3465;42.144;24.722;2022-07-23T05:42:02;18.45;;;9.13;;
6852;SDS011;3465;42.144;24.722;2022-07-23T05:44:27;17.77;;;9.85;;
6852;SDS011;3465;42.144;24.722;2022-07-23T05:46:53;22.55;;;9.30;;
6852;SDS011;3465;42.144;24.722;2022-07-23T05:49:18;22.10;;;8.63;;
6852;SDS011;3465;42.144;24.722;2022-07-23T05:51:44;23.80;;;8.90;;
6852;SDS011;3465;42.144;24.722;2022-07-23T05:54:10;21.63;;;9.27;;
6852;SDS011;3465;42.144;24.722;2022-07-23T05:56:35;18.52;;;9.05;;
6852;SDS011;3465;42.144;24.722;2022-07-23T05:59:01;18.27;;;9.05;;
6852;SDS011;3465;42.144;24.722;2022-07-23T06:01:26;19.10;;;8.90;;
6852;SDS011;3465;42.144;24.722;2022-07-23T06:03:52;19.75;;;9.65;;
6852;SDS011;3465;42.144;24.722;2022-07-23T06:06:17;17.42;;;8.77;;
6852;SDS011;3465;42.144;24.722;2022-07-23T06:08:43;24.98;;;8.85;;
6852;SDS011;3465;42.144;24.722;2022-07-23T06:11:08;42.15;;;9.48;;
6852;SDS011;3465;42.144;24.722;2022-07-23T06:13:34;21.23;;;8.13;;
6852;SDS011;3465;42.144;24.722;2022-07-23T06:15:59;14.48;;;8.63;;
6852;SDS011;3465;42.144;24.722;2022-07-23T06:18:24;16.63;;;7.95;;
6852;SDS011;3465;42.144;24.722;2022-07-23T06:20:50;15.80;;;7.38;;
6852;SDS011;3465;42.144;24.722;2022-07-23T06:23:15;18.65;;;7.47;;
6852;SDS011;3465;42.144;24.722;2022-07-23T06:25:41;14.57;;;6.50;;
6852;SDS011;3465;42.144;24.722;2022-07-23T06:28:06;14.95;;;7.28;;
6852;SDS011;3465;42.144;24.722;2022-07-23T06:30:31;16.02;;;6.68;;
6852;SDS011;3465;42.144;24.722;2022-07-23T06:32:57;19.98;;;6.75;;
6852;SDS011;3465;42.144;24.722;2022-07-23T06:35:22;13.85;;;6.20;;
6852;SDS011;3465;42.144;24.722;2022-07-23T06:37:48;16.10;;;6.30;;
6852;SDS011;3465;42.144;24.722;2022-07-23T06:40:13;13.95;;;6.38;;
6852;SDS011;3465;42.144;24.722;2022-07-23T06:42:39;20.05;;;5.95;;
6852;SDS011;3465;42.144;24.722;2022-07-23T06:45:05;13.68;;;5.47;;
6852;SDS011;3465;42.144;24.722;2022-07-23T06:47:32;24.23;;;6.30;;
6852;SDS011;3465;42.144;24.722;2022-07-23T06:49:57;17.05;;;5.45;;
6852;SDS011;3465;42.144;24.722;2022-07-23T06:52:23;14.38;;;5.60;;
6852;SDS011;3465;42.144;24.722;2022-07-23T06:54:48;8.73;;;4.97;;
6852;SDS011;3465;42.144;24.722;2022-07-23T06:57:14;14.50;;;5.05;;
6852;SDS011;3465;42.144;24.722;2022-07-23T06:59:39;12.77;;;4.88;;
6852;SDS011;3465;42.144;24.722;2022-07-23T07:02:05;10.30;;;5.38;;
6852;SDS011;3465;42.144;24.722;2022-07-23T07:04:31;14.15;;;5.15;;
6852;SDS011;3465;42.144;24.722;2022-07-23T07:06:57;17.27;;;5.53;;
6852;SDS011;3465;42.144;24.722;2022-07-23T07:09:22;15.55;;;5.00;;
6852;SDS011;3465;42.144;24.722;2022-07-23T07:11:48;11.10;;;4.82;;
6852;SDS011;3465;42.144;24.722;2022-07-23T07:14:13;14.63;;;4.70;;
6852;SDS011;3465;42.144;24.722;2022-07-23T07:16:39;6.93;;;4.43;;
6852;SDS011;3465;42.144;24.722;2022-07-23T07:19:04;10.95;;;4.40;;
6852;SDS011;3465;42.144;24.722;2022-07-23T07:21:29;12.20;;;5.32;;
6852;SDS011;3465;42.144;24.722;2022-07-23T07:23:55;11.20;;;4.25;;
6852;SDS011;3465;42.144;24.722;2022-07-23T07:26:20;7.97;;;4.18;;
6852;SDS011;3465;42.144;24.722;2022-07-23T07:28:46;13.85;;;4.72;;
6852;SDS011;3465;42.144;24.722;2022-07-23T07:31:14;8.20;;;4.35;;
6852;SDS011;3465;42.144;24.722;2022-07-23T07:33:39;10.18;;;4.78;;
6852;SDS011;3465;42.144;24.722;2022-07-23T07:36:05;9.45;;;4.82;;
6852;SDS011;3465;42.144;24.722;2022-07-23T07:38:31;11.00;;;4.03;;
6852;SDS011;3465;42.144;24.722;2022-07-23T07:40:56;9.43;;;3.78;;
6852;SDS011;3465;42.144;24.722;2022-07-23T07:43:22;11.85;;;4.38;;
6852;SDS011;3465;42.144;24.722;2022-07-23T07:45:47;14.88;;;5.20;;
6852;SDS011;3465;42.144;24.722;2022-07-23T07:48:13;12.43;;;3.55;;
6852;SDS011;3465;42.144;24.722;2022-07-23T07:50:41;9.02;;;4.35;;
6852;SDS011;3465;42.144;24.722;2022-07-23T07:53:06;9.43;;;4.07;;
6852;SDS011;3465;42.144;24.722;2022-07-23T07:55:32;9.75;;;4.10;;
6852;SDS011;3465;42.144;24.722;2022-07-23T07:57:57;10.90;;;4.40;;
6852;SDS011;3465;42.144;24.722;2022-07-23T08:00:23;8.45;;;3.97;;
6852;SDS011;3465;42.144;24.722;2022-07-23T08:02:50;10.05;;;4.15;;
6852;SDS011;3465;42.144;24.722;2022-07-23T08:05:23;14.70;;;3.90;;
6852;SDS011;3465;42.144;24.722;2022-07-23T08:07:54;9.50;;;3.80;;
6852;SDS011;3465;42.144;24.722;2022-07-23T08:10:21;11.57;;;3.67;;
6852;SDS011;3465;42.144;24.722;2022-07-23T08:12:48;11.88;;;4.20;;
6852;SDS011;3465;42.144;24.722;2022-07-23T08:15:15;10.25;;;3.83;;
6852;SDS011;3465;42.144;24.722;2022-07-23T08:17:42;9.82;;;4.38;;
6852;SDS011;3465;42.144;24.722;2022-07-23T08:20:10;13.88;;;4.45;;
6852;SDS011;3465;42.144;24.722;2022-07-23T08:25:40;14.20;;;4.28;;
6852;SDS011;3465;42.144;24.722;2022-07-23T08:28:10;10.25;;;3.95;;
6852;SDS011;3465;42.144;24.722;2022-07-23T08:30:37;11.00;;;3.90;;
6852;SDS011;3465;42.144;24.722;2022-07-23T08:35:33;7.05;;;3.78;;
6852;SDS011;3465;42.144;24.722;2022-07-23T08:38:02;9.82;;;4.25;;
6852;SDS011;3465;42.144;24.722;2022-07-23T08:40:30;13.65;;;4.20;;
6852;SDS011;3465;42.144;24.722;2022-07-23T08:42:57;9.07;;;3.80;;
6852;SDS011;3465;42.144;24.722;2022-07-23T08:45:23;10.50;;;3.53;;
6852;SDS011;3465;42.144;24.722;2022-07-23T08:47:50;52.88;;;7.38;;
6852;SDS011;3465;42.144;24.722;2022-07-23T08:50:16;14.38;;;4.05;;
6852;SDS011;3465;42.144;24.722;2022-07-23T08:52:42;21.42;;;4.40;;
6852;SDS011;3465;42.144;24.722;2022-07-23T08:55:08;11.15;;;4.00;;
6852;SDS011;3465;42.144;24.722;2022-07-23T08:57:34;13.55;;;4.43;;
6852;SDS011;3465;42.144;24.722;2022-07-23T08:59:59;25.60;;;5.18;;
6852;SDS011;3465;42.144;24.722;2022-07-23T09:02:25;8.38;;;3.83;;
6852;SDS011;3465;42.144;24.722;2022-07-23T09:04:50;11.38;;;4.10;;
6852;SDS011;3465;42.144;24.722;2022-07-23T09:07:16;12.68;;;4.20;;
6852;SDS011;3465;42.144;24.722;2022-07-23T09:09:41;29.02;;;8.57;;
6852;SDS011;3465;42.144;24.722;2022-07-23T09:12:08;9.13;;;4.05;;
6852;SDS011;3465;42.144;24.722;2022-07-23T09:14:44;4.70;;;3.70;;
6852;SDS011;3465;42.144;24.722;2022-07-23T09:17:13;5.93;;;3.50;;
6852;SDS011;3465;42.144;24.722;2022-07-23T09:19:42;8.65;;;3.58;;
6852;SDS011;3465;42.144;24.722;2022-07-23T09:22:25;8.88;;;3.63;;
6852;SDS011;3465;42.144;24.722;2022-07-23T09:27:47;8.48;;;3.90;;
6852;SDS011;3465;42.144;24.722;2022-07-23T09:30:21;10.23;;;3.83;;
6852;SDS011;3465;42.144;24.722;2022-07-23T09:33:03;6.38;;;3.65;;
6852;SDS011;3465;42.144;24.722;2022-07-23T09:35:54;7.05;;;3.63;;
6852;SDS011;3465;42.144;24.722;2022-07-23T09:38:22;5.72;;;3.78;;
6852;SDS011;3465;42.144;24.722;2022-07-23T09:43:35;7.97;;;3.50;;
6852;SDS011;3465;42.144;24.722;2022-07-23T09:49:09;7.53;;;3.58;;
6852;SDS011;3465;42.144;24.722;2022-07-23T09:52:09;11.25;;;3.72;;
6852;SDS011;3465;42.144;24.722;2022-07-23T09:54:29;9.18;;;3.80;;
6852;SDS011;3465;42.144;24.722;2022-07-23T09:57:00;9.18;;;3.53;;
6852;SDS011;3465;42.144;24.722;2022-07-23T09:59:37;6.47;;;3.42;;
6852;SDS011;3465;42.144;24.722;2022-07-23T10:02:05;7.90;;;3.67;;
6852;SDS011;3465;42.144;24.722;2022-07-23T10:04:32;8.70;;;3.30;;
6852;SDS011;3465;42.144;24.722;2022-07-23T10:07:00;7.88;;;4.00;;
6852;SDS011;3465;42.144;24.722;2022-07-23T10:09:32;6.47;;;3.88;;
6852;SDS011;3465;42.144;24.722;2022-07-23T10:12:00;14.57;;;4.30;;
6852;SDS011;3465;42.144;24.722;2022-07-23T10:14:34;8.07;;;3.60;;
6852;SDS011;3465;42.144;24.722;2022-07-23T10:17:00;10.98;;;3.78;;
6852;SDS011;3465;42.144;24.722;2022-07-23T10:19:29;5.50;;;3.22;;
6852;SDS011;3465;42.144;24.722;2022-07-23T10:21:57;7.72;;;4.32;;
6852;SDS011;3465;42.144;24.722;2022-07-23T10:24:44;9.00;;;3.30;;
6852;SDS011;3465;42.144;24.722;2022-07-23T10:27:34;8.50;;;4.35;;
6852;SDS011;3465;42.144;24.722;2022-07-23T10:41:45;8.55;;;3.60;;
6852;SDS011;3465;42.144;24.722;2022-07-23T10:44:12;8.25;;;3.78;;
6852;SDS011;3465;42.144;24.722;2022-07-23T10:46:58;6.45;;;3.88;;
6852;SDS011;3465;42.144;24.722;2022-07-23T10:50:26;10.45;;;3.50;;
6852;SDS011;3465;42.144;24.722;2022-07-23T10:55:48;5.60;;;3.65;;
6852;SDS011;3465;42.144;24.722;2022-07-23T10:58:50;9.23;;;3.45;;
6852;SDS011;3465;42.144;24.722;2022-07-23T11:01:36;10.80;;;3.63;;
6852;SDS011;3465;42.144;24.722;2022-07-23T11:04:03;9.55;;;4.22;;
6852;SDS011;3465;42.144;24.722;2022-07-23T11:09:30;11.07;;;4.03;;
6852;SDS011;3465;42.144;24.722;2022-07-23T11:17:22;9.18;;;3.72;;
6852;SDS011;3465;42.144;24.722;2022-07-23T11:22:34;10.27;;;3.90;;
6852;SDS011;3465;42.144;24.722;2022-07-23T11:25:00;13.05;;;3.83;;
6852;SDS011;3465;42.144;24.722;2022-07-23T11:27:36;12.77;;;3.40;;
6852;SDS011;3465;42.144;24.722;2022-07-23T11:30:05;14.73;;;4.05;;
6852;SDS011;3465;42.144;24.722;2022-07-23T11:32:33;8.10;;;3.08;;
6852;SDS011;3465;42.144;24.722;2022-07-23T11:35:25;11.73;;;4.25;;
6852;SDS011;3465;42.144;24.722;2022-07-23T11:37:53;11.05;;;3.80;;
6852;SDS011;3465;42.144;24.722;2022-07-23T11:40:27;11.88;;;3.88;;
6852;SDS011;3465;42.144;24.722;2022-07-23T11:45:23;11.90;;;4.03;;
6852;SDS011;3465;42.144;24.722;2022-07-23T11:47:51;9.30;;;3.72;;
6852;SDS011;3465;42.144;24.722;2022-07-23T11:50:17;9.45;;;3.50;;
6852;SDS011;3465;42.144;24.722;2022-07-23T11:52:42;10.48;;;3.80;;
6852;SDS011;3465;42.144;24.722;2022-07-23T11:55:09;12.48;;;4.03;;
6852;SDS011;3465;42.144;24.722;2022-07-23T11:57:37;11.18;;;3.70;;
6852;SDS011;3465;42.144;24.722;2022-07-23T12:00:06;10.45;;;4.00;;
6852;SDS011;3465;42.144;24.722;2022-07-23T12:02:37;9.68;;;4.25;;
6852;SDS011;3465;42.144;24.722;2022-07-23T12:05:04;7.28;;;3.80;;
6852;SDS011;3465;42.144;24.722;2022-07-23T12:12:40;11.82;;;4.10;;
6852;SDS011;3465;42.144;24.722;2022-07-23T12:15:10;7.20;;;3.70;;
6852;SDS011;3465;42.144;24.722;2022-07-23T12:17:38;10.32;;;4.25;;
6852;SDS011;3465;42.144;24.722;2022-07-23T12:20:05;8.80;;;3.95;;
6852;SDS011;3465;42.144;24.722;2022-07-23T12:22:36;11.02;;;4.20;;
6852;SDS011;3465;42.144;24.722;2022-07-23T12:25:14;10.75;;;3.78;;
6852;SDS011;3465;42.144;24.722;2022-07-23T12:27:42;9.13;;;3.30;;
6852;SDS011;3465;42.144;24.722;2022-07-23T12:30:26;11.13;;;4.60;;
6852;SDS011;3465;42.144;24.722;2022-07-23T12:32:54;12.40;;;3.85;;
6852;SDS011;3465;42.144;24.722;2022-07-23T12:35:22;10.05;;;3.70;;
6852;SDS011;3465;42.144;24.722;2022-07-23T12:37:49;10.80;;;3.80;;
6852;SDS011;3465;42.144;24.722;2022-07-23T12:43:22;12.65;;;3.97;;
6852;SDS011;3465;42.144;24.722;2022-07-23T12:45:48;7.63;;;3.65;;
6852;SDS011;3465;42.144;24.722;2022-07-23T12:48:23;8.95;;;4.07;;
6852;SDS011;3465;42.144;24.722;2022-07-23T12:50:54;7.07;;;3.85;;
6852;SDS011;3465;42.144;24.722;2022-07-23T12:56:05;11.45;;;4.00;;
6852;SDS011;3465;42.144;24.722;2022-07-23T12:58:39;9.40;;;3.75;;
6852;SDS011;3465;42.144;24.722;2022-07-23T13:01:05;9.43;;;3.97;;
6852;SDS011;3465;42.144;24.722;2022-07-23T13:05:59;14.65;;;4.40;;
6852;SDS011;3465;42.144;24.722;2022-07-23T13:08:27;11.40;;;3.95;;
6852;SDS011;3465;42.144;24.722;2022-07-23T13:10:54;9.30;;;4.20;;
6852;SDS011;3465;42.144;24.722;2022-07-23T13:13:23;10.55;;;3.75;;
6852;SDS011;3465;42.144;24.722;2022-07-23T13:15:51;15.82;;;4.43;;
6852;SDS011;3465;42.144;24.722;2022-07-23T13:18:18;11.85;;;4.40;;
6852;SDS011;3465;42.144;24.722;2022-07-23T13:20:44;10.48;;;3.95;;
6852;SDS011;3465;42.144;24.722;2022-07-23T13:23:11;7.63;;;4.10;;
6852;SDS011;3465;42.144;24.722;2022-07-23T13:25:37;12.68;;;3.95;;
6852;SDS011;3465;42.144;24.722;2022-07-23T13:28:03;11.48;;;4.45;;
6852;SDS011;3465;42.144;24.722;2022-07-23T13:30:29;9.35;;;3.83;;
6852;SDS011;3465;42.144;24.722;2022-07-23T13:32:55;14.13;;;4.47;;
6852;SDS011;3465;42.144;24.722;2022-07-23T13:35:20;12.77;;;3.78;;
6852;SDS011;3465;42.144;24.722;2022-07-23T13:37:46;12.60;;;4.13;;
6852;SDS011;3465;42.144;24.722;2022-07-23T13:40:11;11.70;;;4.10;;
6852;SDS011;3465;42.144;24.722;2022-07-23T13:42:37;10.65;;;4.00;;
6852;SDS011;3465;42.144;24.722;2022-07-23T13:45:03;16.65;;;4.38;;
6852;SDS011;3465;42.144;24.722;2022-07-23T13:47:30;11.73;;;5.03;;
6852;SDS011;3465;42.144;24.722;2022-07-23T13:49:55;7.63;;;3.95;;
6852;SDS011;3465;42.144;24.722;2022-07-23T13:52:21;15.32;;;4.40;;
6852;SDS011;3465;42.144;24.722;2022-07-23T13:54:46;18.98;;;4.32;;
6852;SDS011;3465;42.144;24.722;2022-07-23T13:57:12;12.35;;;3.88;;
6852;SDS011;3465;42.144;24.722;2022-07-23T13:59:37;15.05;;;4.00;;
6852;SDS011;3465;42.144;24.722;2022-07-23T14:02:03;13.80;;;4.72;;
6852;SDS011;3465;42.144;24.722;2022-07-23T14:04:29;9.52;;;3.92;;
6852;SDS011;3465;42.144;24.722;2022-07-23T14:06:54;10.73;;;3.70;;
6852;SDS011;3465;42.144;24.722;2022-07-23T14:09:20;10.52;;;4.10;;
6852;SDS011;3465;42.144;24.722;2022-07-23T14:11:45;15.40;;;4.43;;
6852;SDS011;3465;42.144;24.722;2022-07-23T14:14:11;8.05;;;3.60;;
6852;SDS011;3465;42.144;24.722;2022-07-23T14:16:36;14.70;;;4.40;;
6852;SDS011;3465;42.144;24.722;2022-07-23T14:19:01;11.68;;;4.38;;
6852;SDS011;3465;42.144;24.722;2022-07-23T14:21:27;11.63;;;4.38;;
6852;SDS011;3465;42.144;24.722;2022-07-23T14:23:53;12.02;;;3.90;;
6852;SDS011;3465;42.144;24.722;2022-07-23T14:26:18;9.55;;;3.90;;
6852;SDS011;3465;42.144;24.722;2022-07-23T14:28:44;12.55;;;4.22;;
6852;SDS011;3465;42.144;24.722;2022-07-23T14:31:10;13.13;;;4.75;;
6852;SDS011;3465;42.144;24.722;2022-07-23T14:33:35;13.07;;;3.95;;
6852;SDS011;3465;42.144;24.722;2022-07-23T14:36:00;14.32;;;4.57;;
6852;SDS011;3465;42.144;24.722;2022-07-23T14:38:26;17.98;;;4.80;;
6852;SDS011;3465;42.144;24.722;2022-07-23T14:40:52;11.80;;;4.53;;
6852;SDS011;3465;42.144;24.722;2022-07-23T14:43:17;11.10;;;4.50;;
6852;SDS011;3465;42.144;24.722;2022-07-23T14:45:43;12.32;;;5.15;;
6852;SDS011;3465;42.144;24.722;2022-07-23T14:48:08;11.65;;;4.35;;
6852;SDS011;3465;42.144;24.722;2022-07-23T14:50:34;14.48;;;5.10;;
6852;SDS011;3465;42.144;24.722;2022-07-23T14:52:59;12.32;;;5.47;;
6852;SDS011;3465;42.144;24.722;2022-07-23T14:55:25;18.63;;;4.88;;
6852;SDS011;3465;42.144;24.722;2022-07-23T14:57:50;10.63;;;4.55;;
6852;SDS011;3465;42.144;24.722;2022-07-23T15:00:16;14.57;;;4.13;;
6852;SDS011;3465;42.144;24.722;2022-07-23T15:02:41;12.50;;;4.15;;
6852;SDS011;3465;42.144;24.722;2022-07-23T15:05:07;11.68;;;4.35;;
6852;SDS011;3465;42.144;24.722;2022-07-23T15:07:32;11.68;;;4.07;;
6852;SDS011;3465;42.144;24.722;2022-07-23T15:09:58;11.05;;;4.45;;
6852;SDS011;3465;42.144;24.722;2022-07-23T15:12:23;8.82;;;4.07;;
6852;SDS011;3465;42.144;24.722;2022-07-23T15:14:49;14.02;;;4.90;;
6852;SDS011;3465;42.144;24.722;2022-07-23T15:17:15;13.65;;;5.55;;
6852;SDS011;3465;42.144;24.722;2022-07-23T15:19:41;7.95;;;4.60;;
6852;SDS011;3465;42.144;24.722;2022-07-23T15:22:06;14.52;;;4.32;;
6852;SDS011;3465;42.144;24.722;2022-07-23T15:24:32;12.63;;;4.43;;
6852;SDS011;3465;42.144;24.722;2022-07-23T15:26:57;14.32;;;4.90;;
6852;SDS011;3465;42.144;24.722;2022-07-23T15:29:23;14.15;;;4.75;;
6852;SDS011;3465;42.144;24.722;2022-07-23T15:31:48;12.57;;;4.75;;
6852;SDS011;3465;42.144;24.722;2022-07-23T15:34:14;11.55;;;4.80;;
6852;SDS011;3465;42.144;24.722;2022-07-23T15:36:40;16.20;;;5.10;;
6852;SDS011;3465;42.144;24.722;2022-07-23T15:39:05;17.10;;;5.32;;
6852;SDS011;3465;42.144;24.722;2022-07-23T15:41:32;13.95;;;4.47;;
6852;SDS011;3465;42.144;24.722;2022-07-23T15:43:57;15.65;;;4.95;;
6852;SDS011;3465;42.144;24.722;2022-07-23T15:46:23;10.38;;;4.43;;